createdAt,value
2019-02-18T00:00:28.894Z,0.00
2019-02-18T00:01:28.902Z,0.00
2019-02-18T00:02:28.880Z,0.00
2019-02-18T00:03:28.854Z,0.00
2019-02-18T00:04:28.843Z,0.00
2019-02-18T00:05:28.830Z,0.00
2019-02-18T00:06:28.835Z,0.00
2019-02-18T00:07:28.833Z,0.00
2019-02-18T00:08:28.797Z,0.00
2019-02-18T00:09:28.783Z,0.00
2019-02-18T00:10:28.773Z,0.00
2019-02-18T00:11:28.764Z,0.00
2019-02-18T00:12:28.776Z,0.00
2019-02-18T00:13:28.753Z,0.00
2019-02-18T00:14:28.726Z,0.00
2019-02-18T00:15:28.715Z,0.00
2019-02-18T00:16:28.724Z,0.00
2019-02-18T00:17:28.702Z,0.00
2019-02-18T00:18:28.706Z,0.00
2019-02-18T00:19:28.671Z,0.00
2019-02-18T00:20:28.658Z,0.00
2019-02-18T00:21:28.647Z,0.00
2019-02-18T00:22:28.637Z,0.00
2019-02-18T00:23:28.645Z,0.00
2019-02-18T00:24:28.614Z,0.00
2019-02-18T00:25:28.609Z,0.00
2019-02-18T00:26:28.590Z,0.00
2019-02-18T00:27:28.596Z,0.00
2019-02-18T00:28:28.592Z,0.00
2019-02-18T00:29:28.590Z,0.00
2019-02-18T00:30:28.546Z,0.00
2019-02-18T00:31:28.531Z,0.00
2019-02-18T00:32:28.523Z,0.00
2019-02-18T00:33:28.530Z,0.00
2019-02-18T00:34:28.498Z,0.00
2019-02-18T00:35:28.486Z,0.00
2019-02-18T00:36:28.474Z,0.00
2019-02-18T00:37:28.466Z,0.00
2019-02-18T00:38:28.485Z,0.00
2019-02-18T00:39:28.456Z,0.00
2019-02-18T00:40:28.431Z,0.00
2019-02-18T00:41:28.426Z,0.00
2019-02-18T00:42:28.409Z,0.00
2019-02-18T00:43:28.416Z,0.00
2019-02-18T00:44:28.385Z,0.00
2019-02-18T00:45:28.371Z,0.00
2019-02-18T00:46:28.360Z,0.00
2019-02-18T00:47:28.346Z,0.00
2019-02-18T00:48:28.355Z,0.00
2019-02-18T00:49:28.326Z,0.00
2019-02-18T00:50:28.335Z,0.00
2019-02-18T00:51:28.301Z,0.00
2019-02-18T00:52:28.289Z,0.00
2019-02-18T00:53:28.295Z,0.00
2019-02-18T00:54:28.266Z,0.00
2019-02-18T00:55:28.257Z,0.00
2019-02-18T00:56:28.242Z,0.00
2019-02-18T00:57:28.230Z,0.00
2019-02-18T00:58:28.239Z,0.00
2019-02-18T00:59:28.207Z,0.00
2019-02-18T01:00:28.195Z,0.00
2019-02-18T01:01:28.184Z,0.00
2019-02-18T01:02:28.169Z,0.00
2019-02-18T01:03:28.175Z,0.00
2019-02-18T01:04:28.150Z,0.00
2019-02-18T01:05:28.135Z,0.00
2019-02-18T01:06:28.123Z,0.00
2019-02-18T01:07:34.521Z,0.00
2019-02-18T01:08:29.117Z,0.00
2019-02-18T01:09:28.087Z,0.00
2019-02-18T01:10:28.077Z,0.00
2019-02-18T01:11:28.068Z,0.00
2019-02-18T01:12:28.062Z,0.00
2019-02-18T01:13:28.959Z,0.00
2019-02-18T01:14:28.029Z,0.00
2019-02-18T01:15:28.015Z,0.00
2019-02-18T01:16:28.009Z,0.00
2019-02-18T01:17:27.993Z,0.00
2019-02-18T01:18:28.013Z,0.00
2019-02-18T01:19:27.968Z,0.00
2019-02-18T01:20:27.955Z,0.00
2019-02-18T01:21:27.945Z,0.00
2019-02-18T01:22:27.937Z,0.00
2019-02-18T01:23:27.926Z,0.00
2019-02-18T01:24:27.929Z,0.00
2019-02-18T01:25:27.898Z,0.00
2019-02-18T01:26:27.885Z,0.00
2019-02-18T01:27:27.877Z,0.00
2019-02-18T01:28:27.867Z,0.00
2019-02-18T01:29:27.892Z,0.00
2019-02-18T01:30:27.844Z,0.00
2019-02-18T01:31:27.834Z,0.00
2019-02-18T01:32:27.820Z,0.00
2019-02-18T01:33:27.816Z,0.00
2019-02-18T01:34:27.792Z,0.00
2019-02-18T01:35:27.821Z,0.00
2019-02-18T01:36:27.770Z,0.00
2019-02-18T01:37:27.758Z,0.00
2019-02-18T01:38:27.751Z,0.00
2019-02-18T01:39:27.736Z,0.00
2019-02-18T01:40:27.741Z,0.00
2019-02-18T01:41:27.708Z,0.00
2019-02-18T01:42:27.699Z,0.00
2019-02-18T01:43:27.688Z,0.00
2019-02-18T01:44:27.677Z,0.00
2019-02-18T01:45:27.687Z,0.00
2019-02-18T01:46:27.650Z,0.00
2019-02-18T01:47:27.639Z,0.00
2019-02-18T01:48:27.628Z,0.00
2019-02-18T01:49:27.620Z,0.00
2019-02-18T01:50:27.606Z,0.00
2019-02-18T01:51:27.613Z,0.00
2019-02-18T01:52:27.583Z,0.00
2019-02-18T01:53:27.566Z,0.00
2019-02-18T01:54:27.555Z,0.00
2019-02-18T01:55:27.566Z,0.00
2019-02-18T01:56:27.561Z,0.00
2019-02-18T01:57:27.521Z,0.00
2019-02-18T01:58:27.508Z,0.00
2019-02-18T01:59:27.500Z,0.00
2019-02-18T02:00:27.517Z,0.00
2019-02-18T02:01:27.474Z,0.00
2019-02-18T02:02:27.459Z,0.00
2019-02-18T02:03:27.458Z,0.00
2019-02-18T02:04:27.438Z,0.00
2019-02-18T02:05:27.433Z,0.00
2019-02-18T02:06:27.434Z,0.00
2019-02-18T02:07:27.401Z,0.00
2019-02-18T02:08:27.389Z,0.00
2019-02-18T02:09:27.376Z,0.00
2019-02-18T02:10:27.374Z,0.00
2019-02-18T02:11:27.386Z,0.00
2019-02-18T02:12:27.341Z,0.00
2019-02-18T02:13:27.331Z,0.00
2019-02-18T02:14:27.318Z,0.00
2019-02-18T02:15:27.328Z,0.00
2019-02-18T02:16:27.299Z,0.00
2019-02-18T02:17:27.284Z,0.00
2019-02-18T02:18:27.273Z,0.00
2019-02-18T02:19:27.265Z,0.00
2019-02-18T02:20:27.258Z,0.00
2019-02-18T02:21:27.258Z,0.00
2019-02-18T02:22:27.224Z,0.00
2019-02-18T02:23:27.215Z,0.00
2019-02-18T02:24:27.215Z,0.00
2019-02-18T02:25:27.192Z,0.00
2019-02-18T02:26:27.201Z,0.00
2019-02-18T02:27:27.170Z,0.00
2019-02-18T02:28:27.156Z,0.00
2019-02-18T02:29:27.148Z,0.00
2019-02-18T02:30:27.135Z,0.00
2019-02-18T02:31:27.170Z,0.00
2019-02-18T02:32:27.153Z,0.00
2019-02-18T02:33:27.098Z,0.00
2019-02-18T02:34:27.084Z,0.00
2019-02-18T02:35:27.075Z,0.00
2019-02-18T02:36:27.084Z,0.00
2019-02-18T02:37:27.055Z,0.00
2019-02-18T02:38:27.048Z,0.00
2019-02-18T02:39:27.024Z,0.00
2019-02-18T02:40:34.050Z,0.00
2019-02-18T02:41:27.022Z,0.00
2019-02-18T02:42:26.995Z,0.00
2019-02-18T02:43:27.002Z,0.00
2019-02-18T02:44:26.966Z,0.00
2019-02-18T02:45:26.956Z,0.00
2019-02-18T02:46:26.993Z,0.00
2019-02-18T02:47:26.934Z,0.00
2019-02-18T02:48:26.920Z,0.00
2019-02-18T02:49:26.906Z,0.00
2019-02-18T02:50:26.898Z,0.00
2019-02-18T02:51:26.885Z,0.00
2019-02-18T02:52:26.890Z,0.00
2019-02-18T02:53:26.859Z,0.00
2019-02-18T02:54:26.850Z,0.00
2019-02-18T02:55:26.838Z,0.00
2019-02-18T02:56:26.824Z,0.00
2019-02-18T02:57:26.835Z,0.00
2019-02-18T02:58:26.905Z,0.00
2019-02-18T02:59:26.796Z,0.00
2019-02-18T03:00:26.781Z,0.00
2019-02-18T03:01:26.767Z,0.00
2019-02-18T03:02:26.778Z,0.00
2019-02-18T03:03:26.744Z,0.00
2019-02-18T03:04:26.730Z,0.00
2019-02-18T03:05:26.719Z,0.00
2019-02-18T03:06:26.706Z,0.00
2019-02-18T03:07:26.716Z,0.00
2019-02-18T03:08:26.684Z,0.00
2019-02-18T03:09:26.672Z,0.00
2019-02-18T03:10:26.660Z,0.00
2019-02-18T03:11:26.651Z,0.00
2019-02-18T03:12:26.660Z,0.00
2019-02-18T03:13:26.629Z,0.00
2019-02-18T03:14:26.615Z,0.00
2019-02-18T03:15:26.604Z,0.00
2019-02-18T03:16:26.591Z,0.00
2019-02-18T03:17:26.579Z,0.00
2019-02-18T03:18:26.587Z,0.00
2019-02-18T03:19:26.555Z,0.00
2019-02-18T03:20:26.555Z,0.00
2019-02-18T03:21:26.533Z,0.00
2019-02-18T03:22:26.522Z,0.00
2019-02-18T03:23:26.529Z,0.00
2019-02-18T03:24:26.499Z,0.00
2019-02-18T03:25:26.487Z,0.00
2019-02-18T03:26:26.474Z,0.00
2019-02-18T03:27:26.461Z,0.00
2019-02-18T03:28:26.471Z,0.00
2019-02-18T03:29:26.439Z,0.00
2019-02-18T03:30:26.427Z,0.00
2019-02-18T03:31:26.425Z,0.00
2019-02-18T03:32:26.404Z,0.00
2019-02-18T03:33:26.419Z,0.00
2019-02-18T03:34:26.414Z,0.00
2019-02-18T03:35:26.370Z,0.00
2019-02-18T03:36:26.372Z,0.00
2019-02-18T03:37:26.344Z,0.00
2019-02-18T03:38:31.479Z,0.00
2019-02-18T03:39:27.317Z,0.00
2019-02-18T03:40:26.308Z,0.00
2019-02-18T03:41:26.295Z,0.00
2019-02-18T03:42:26.293Z,0.00
2019-02-18T03:43:26.313Z,0.00
2019-02-18T03:44:26.262Z,0.00
2019-02-18T03:45:26.249Z,0.00
2019-02-18T03:46:26.239Z,0.00
2019-02-18T03:47:26.225Z,0.00
2019-02-18T03:48:26.214Z,0.00
2019-02-18T03:49:26.220Z,0.00
2019-02-18T03:50:26.191Z,0.00
2019-02-18T03:51:26.182Z,0.00
2019-02-18T03:52:26.232Z,0.00
2019-02-18T03:53:26.163Z,0.00
2019-02-18T03:54:26.163Z,0.00
2019-02-18T03:55:26.139Z,0.00
2019-02-18T03:56:26.121Z,0.00
2019-02-18T03:57:26.111Z,0.00
2019-02-18T03:58:26.102Z,0.00
2019-02-18T03:59:26.105Z,0.00
2019-02-18T04:00:26.075Z,0.00
2019-02-18T04:01:26.063Z,0.00
2019-02-18T04:02:26.051Z,0.00
2019-02-18T04:03:26.039Z,0.00
2019-02-18T04:04:26.060Z,0.00
2019-02-18T04:05:26.023Z,0.00
2019-02-18T04:06:26.069Z,0.00
2019-02-18T04:07:25.991Z,0.00
2019-02-18T04:08:25.984Z,0.00
2019-02-18T04:09:25.973Z,0.00
2019-02-18T04:10:25.975Z,0.00
2019-02-18T04:11:25.943Z,0.00
2019-02-18T04:12:25.931Z,0.00
2019-02-18T04:13:25.922Z,0.00
2019-02-18T04:14:25.933Z,0.00
2019-02-18T04:15:25.902Z,0.00
2019-02-18T04:16:25.886Z,0.00
2019-02-18T04:17:25.875Z,0.00
2019-02-18T04:18:25.866Z,0.00
2019-02-18T04:19:25.884Z,0.00
2019-02-18T04:20:25.841Z,0.00
2019-02-18T04:21:25.837Z,0.00
2019-02-18T04:22:25.822Z,0.00
2019-02-18T04:23:25.805Z,0.00
2019-02-18T04:24:25.797Z,0.00
2019-02-18T04:25:25.800Z,0.00
2019-02-18T04:26:25.771Z,0.00
2019-02-18T04:27:25.756Z,0.00
2019-02-18T04:28:25.752Z,0.00
2019-02-18T04:29:25.736Z,0.00
2019-02-18T04:30:25.740Z,0.00
2019-02-18T04:31:25.710Z,0.00
2019-02-18T04:32:25.700Z,0.00
2019-02-18T04:33:25.691Z,0.00
2019-02-18T04:34:25.695Z,0.00
2019-02-18T04:35:25.690Z,0.00
2019-02-18T04:36:25.659Z,0.00
2019-02-18T04:37:25.644Z,0.00
2019-02-18T04:38:25.631Z,0.00
2019-02-18T04:39:25.622Z,0.00
2019-02-18T04:40:25.609Z,0.00
2019-02-18T04:41:25.617Z,0.00
2019-02-18T04:42:25.587Z,0.00
2019-02-18T04:43:25.576Z,0.00
2019-02-18T04:44:25.565Z,0.00
2019-02-18T04:45:25.555Z,0.00
2019-02-18T04:46:25.562Z,0.00
2019-02-18T04:47:25.535Z,0.00
2019-02-18T04:48:25.520Z,0.00
2019-02-18T04:49:25.509Z,0.00
2019-02-18T04:50:25.504Z,0.00
2019-02-18T04:51:25.506Z,0.00
2019-02-18T04:52:25.479Z,0.00
2019-02-18T04:53:25.469Z,0.00
2019-02-18T04:54:25.453Z,0.00
2019-02-18T04:55:25.441Z,0.00
2019-02-18T04:56:25.452Z,0.00
2019-02-18T04:57:25.419Z,0.00
2019-02-18T04:58:25.408Z,0.00
2019-02-18T04:59:25.398Z,0.00
2019-02-18T05:00:25.386Z,0.00
2019-02-18T05:01:25.415Z,0.00
2019-02-18T05:02:25.365Z,0.00
2019-02-18T05:03:25.354Z,0.00
2019-02-18T05:04:25.343Z,0.00
2019-02-18T05:05:25.331Z,0.00
2019-02-18T05:06:25.671Z,0.00
2019-02-18T05:07:25.326Z,0.00
2019-02-18T05:08:25.297Z,0.00
2019-02-18T05:09:25.289Z,0.00
2019-02-18T05:10:25.278Z,0.00
2019-02-18T05:11:25.265Z,0.00
2019-02-18T05:12:25.276Z,0.00
2019-02-18T05:13:25.240Z,0.00
2019-02-18T05:14:25.232Z,0.00
2019-02-18T05:15:25.217Z,0.00
2019-02-18T05:16:25.207Z,0.00
2019-02-18T05:17:25.236Z,0.00
2019-02-18T05:18:25.187Z,0.00
2019-02-18T05:19:25.178Z,0.00
2019-02-18T05:20:25.164Z,0.00
2019-02-18T05:21:25.152Z,0.00
2019-02-18T05:22:25.142Z,0.00
2019-02-18T05:23:25.148Z,0.00
2019-02-18T05:24:25.121Z,0.00
2019-02-18T05:25:25.110Z,0.00
2019-02-18T05:26:25.097Z,0.00
2019-02-18T05:27:33.040Z,0.00
2019-02-18T05:28:26.104Z,0.00
2019-02-18T05:29:25.062Z,0.00
2019-02-18T05:30:25.051Z,0.00
2019-02-18T05:31:25.040Z,0.00
2019-02-18T05:32:25.029Z,0.00
2019-02-18T05:33:25.037Z,0.00
2019-02-18T05:34:25.005Z,0.00
2019-02-18T05:35:25.000Z,0.00
2019-02-18T05:36:24.987Z,0.00
2019-02-18T05:37:24.986Z,0.00
2019-02-18T05:38:24.987Z,0.00
2019-02-18T05:39:24.969Z,0.00
2019-02-18T05:40:24.939Z,0.00
2019-02-18T05:41:24.933Z,0.00
2019-02-18T05:42:24.918Z,0.00
2019-02-18T05:43:24.907Z,0.00
2019-02-18T05:44:24.911Z,0.00
2019-02-18T05:45:24.891Z,0.00
2019-02-18T05:46:24.871Z,0.00
2019-02-18T05:47:24.859Z,0.00
2019-02-18T05:48:24.866Z,0.00
2019-02-18T05:49:24.859Z,0.00
2019-02-18T05:50:24.829Z,0.00
2019-02-18T05:51:24.813Z,0.00
2019-02-18T05:52:24.803Z,0.00
2019-02-18T05:53:24.791Z,0.00
2019-02-18T05:54:26.514Z,0.00
2019-02-18T05:55:24.772Z,0.00
2019-02-18T05:56:24.767Z,0.00
2019-02-18T05:57:24.748Z,0.00
2019-02-18T05:58:24.739Z,0.00
2019-02-18T05:59:24.740Z,0.00
2019-02-18T06:00:24.720Z,0.00
2019-02-18T06:01:24.700Z,0.00
2019-02-18T06:02:24.690Z,0.00
2019-02-18T06:03:24.679Z,4.00
2019-02-18T06:04:24.686Z,4.00
2019-02-18T06:05:24.654Z,0.00
2019-02-18T06:06:24.642Z,4.00
2019-02-18T06:07:24.634Z,4.00
2019-02-18T06:08:24.627Z,4.00
2019-02-18T06:09:29.771Z,4.00
2019-02-18T06:10:25.614Z,4.00
2019-02-18T06:11:24.587Z,4.00
2019-02-18T06:12:24.576Z,8.00
2019-02-18T06:13:24.565Z,12.00
2019-02-18T06:14:24.576Z,12.00
2019-02-18T06:15:24.542Z,12.00
2019-02-18T06:16:24.533Z,12.00
2019-02-18T06:17:24.519Z,20.00
2019-02-18T06:18:24.510Z,24.00
2019-02-18T06:19:24.496Z,28.00
2019-02-18T06:20:24.504Z,32.00
2019-02-18T06:21:24.477Z,40.00
2019-02-18T06:22:24.464Z,48.00
2019-02-18T06:23:24.455Z,56.00
2019-02-18T06:24:24.440Z,64.00
2019-02-18T06:25:24.450Z,72.00
2019-02-18T06:26:24.427Z,88.00
2019-02-18T06:27:24.408Z,104.00
2019-02-18T06:28:24.398Z,120.00
2019-02-18T06:29:24.384Z,136.00
2019-02-18T06:30:24.390Z,160.00
2019-02-18T06:31:24.362Z,180.00
2019-02-18T06:32:24.356Z,204.00
2019-02-18T06:33:24.341Z,232.00
2019-02-18T06:34:24.331Z,260.00
2019-02-18T06:35:24.333Z,288.00
2019-02-18T06:36:24.317Z,320.00
2019-02-18T06:37:24.292Z,352.00
2019-02-18T06:38:24.282Z,388.00
2019-02-18T06:39:24.273Z,424.00
2019-02-18T06:40:24.280Z,464.00
2019-02-18T06:41:24.247Z,468.00
2019-02-18T06:42:24.236Z,508.00
2019-02-18T06:43:24.223Z,592.00
2019-02-18T06:44:24.213Z,636.00
2019-02-18T06:45:24.227Z,688.00
2019-02-18T06:46:24.189Z,736.00
2019-02-18T06:47:25.249Z,792.00
2019-02-18T06:48:24.168Z,844.00
2019-02-18T06:49:24.156Z,896.00
2019-02-18T06:50:24.145Z,956.00
2019-02-18T06:51:24.156Z,1012.00
2019-02-18T06:52:24.185Z,1072.00
2019-02-18T06:53:24.112Z,1132.00
2019-02-18T06:54:24.105Z,1196.00
2019-02-18T06:55:24.088Z,1260.00
2019-02-18T06:56:24.099Z,1320.00
2019-02-18T06:57:24.065Z,1384.00
2019-02-18T06:58:24.056Z,1448.00
2019-02-18T06:59:24.051Z,1512.00
2019-02-18T07:00:24.031Z,1576.00
2019-02-18T07:01:24.039Z,1644.00
2019-02-18T07:02:24.009Z,1712.00
2019-02-18T07:03:23.997Z,1772.00
2019-02-18T07:04:23.986Z,1840.00
2019-02-18T07:05:23.974Z,1904.00
2019-02-18T07:06:23.982Z,1968.00
2019-02-18T07:07:23.954Z,2032.00
2019-02-18T07:08:23.939Z,2000.00
2019-02-18T07:09:23.932Z,2048.00
2019-02-18T07:10:23.917Z,2228.00
2019-02-18T07:11:23.928Z,2292.00
2019-02-18T07:12:23.894Z,2360.00
2019-02-18T07:13:23.944Z,2420.00
2019-02-18T07:14:23.871Z,2480.00
2019-02-18T07:15:23.866Z,2544.00
2019-02-18T07:16:23.872Z,2608.00
2019-02-18T07:17:23.844Z,2672.00
2019-02-18T07:18:23.827Z,2736.00
2019-02-18T07:19:23.814Z,2800.00
2019-02-18T07:20:23.803Z,2860.00
2019-02-18T07:21:23.799Z,2920.00
2019-02-18T07:22:23.801Z,2980.00
2019-02-18T07:23:23.768Z,3048.00
2019-02-18T07:24:23.757Z,3096.00
2019-02-18T07:25:23.746Z,3156.00
2019-02-18T07:26:23.734Z,3208.00
2019-02-18T07:27:23.746Z,3264.00
2019-02-18T07:28:23.711Z,3316.00
2019-02-18T07:29:23.701Z,3372.00
2019-02-18T07:30:23.690Z,3428.00
2019-02-18T07:31:23.678Z,3476.00
2019-02-18T07:32:23.686Z,3528.00
2019-02-18T07:33:23.673Z,3580.00
2019-02-18T07:34:23.649Z,3636.00
2019-02-18T07:35:23.633Z,3692.00
2019-02-18T07:36:23.623Z,3752.00
2019-02-18T07:37:23.636Z,3996.00
2019-02-18T07:38:23.599Z,4528.00
2019-02-18T07:39:23.595Z,4952.00
2019-02-18T07:40:23.576Z,5256.00
2019-02-18T07:41:23.572Z,5672.00
2019-02-18T07:42:23.555Z,7708.00
2019-02-18T07:43:23.563Z,7148.00
2019-02-18T07:44:23.538Z,6596.00
2019-02-18T07:45:23.524Z,6268.00
2019-02-18T07:46:23.512Z,7732.00
2019-02-18T07:47:23.501Z,10532.00
2019-02-18T07:48:23.506Z,9680.00
2019-02-18T07:49:23.477Z,7620.00
2019-02-18T07:50:23.467Z,7512.00
2019-02-18T07:51:23.455Z,9112.00
2019-02-18T07:52:23.446Z,12400.00
2019-02-18T07:53:23.460Z,13888.00
2019-02-18T07:54:23.423Z,13340.00
2019-02-18T07:55:23.407Z,14000.00
2019-02-18T07:56:23.396Z,12560.00
2019-02-18T07:57:23.385Z,13656.00
2019-02-18T07:58:23.391Z,17408.00
2019-02-18T07:59:23.362Z,19680.00
2019-02-18T08:00:23.352Z,21504.00
2019-02-18T08:01:23.340Z,22752.00
2019-02-18T08:02:23.326Z,22592.00
2019-02-18T08:03:23.333Z,22560.00
2019-02-18T08:04:23.305Z,22464.00
2019-02-18T08:05:23.300Z,22336.00
2019-02-18T08:06:23.280Z,22112.00
2019-02-18T08:07:23.272Z,21504.00
2019-02-18T08:08:23.285Z,22272.00
2019-02-18T08:09:23.258Z,24512.00
2019-02-18T08:10:23.233Z,26016.00
2019-02-18T08:11:23.224Z,26656.00
2019-02-18T08:12:23.213Z,26336.00
2019-02-18T08:13:23.201Z,25984.00
2019-02-18T08:14:23.210Z,25152.00
2019-02-18T08:15:23.175Z,25344.00
2019-02-18T08:16:23.167Z,25120.00
2019-02-18T08:17:23.153Z,23744.00
2019-02-18T08:18:23.161Z,22272.00
2019-02-18T08:19:23.134Z,20192.00
2019-02-18T08:20:23.119Z,19520.00
2019-02-18T08:21:23.107Z,14688.00
2019-02-18T08:22:23.097Z,9716.00
2019-02-18T08:23:23.103Z,8236.00
2019-02-18T08:24:23.073Z,7212.00
2019-02-18T08:25:23.061Z,6856.00
2019-02-18T08:26:23.051Z,6532.00
2019-02-18T08:27:23.040Z,6312.00
2019-02-18T08:28:23.053Z,6300.00
2019-02-18T08:29:23.014Z,7704.00
2019-02-18T08:30:23.004Z,11892.00
2019-02-18T08:31:22.993Z,17952.00
2019-02-18T08:32:22.981Z,21856.00
2019-02-18T08:33:23.020Z,18496.00
2019-02-18T08:34:22.960Z,23744.00
2019-02-18T08:35:22.946Z,26240.00
2019-02-18T08:36:22.934Z,25728.00
2019-02-18T08:37:23.012Z,25984.00
2019-02-18T08:38:22.916Z,27840.00
2019-02-18T08:39:22.920Z,32576.00
2019-02-18T08:40:22.934Z,34080.00
2019-02-18T08:41:22.878Z,33984.00
2019-02-18T08:42:22.870Z,33888.00
2019-02-18T08:43:22.855Z,35488.00
2019-02-18T08:44:22.862Z,38720.00
2019-02-18T08:45:22.832Z,41248.00
2019-02-18T08:46:22.821Z,42784.00
2019-02-18T08:47:22.810Z,44384.00
2019-02-18T08:48:24.139Z,44736.00
2019-02-18T08:49:22.805Z,45984.00
2019-02-18T08:50:22.778Z,50656.00
2019-02-18T08:51:22.767Z,58272.00
2019-02-18T08:52:22.751Z,60832.00
2019-02-18T08:53:22.786Z,52896.00
2019-02-18T08:54:22.771Z,43936.00
2019-02-18T08:55:22.718Z,38240.00
2019-02-18T08:56:22.707Z,34208.00
2019-02-18T08:57:22.694Z,29408.00
2019-02-18T08:58:22.683Z,27744.00
2019-02-18T08:59:22.671Z,29248.00
2019-02-18T09:00:22.677Z,28800.00
2019-02-18T09:01:22.647Z,28128.00
2019-02-18T09:02:22.637Z,27616.00
2019-02-18T09:03:22.628Z,27424.00
2019-02-18T09:04:22.616Z,27360.00
2019-02-18T09:05:22.761Z,27520.00
2019-02-18T09:06:22.590Z,27552.00
2019-02-18T09:07:22.582Z,27488.00
2019-02-18T09:08:22.574Z,27424.00
2019-02-18T09:09:22.566Z,27264.00
2019-02-18T09:10:32.688Z,27264.00
2019-02-18T09:11:23.533Z,27456.00
2019-02-18T09:12:22.526Z,27456.00
2019-02-18T09:13:22.511Z,27456.00
2019-02-18T09:14:22.500Z,27424.00
2019-02-18T09:15:22.489Z,27552.00
2019-02-18T09:16:22.498Z,27648.00
2019-02-18T09:17:22.466Z,27840.00
2019-02-18T09:18:22.454Z,26336.00
2019-02-18T09:19:22.443Z,23232.00
2019-02-18T09:20:22.432Z,27936.00
2019-02-18T09:21:22.440Z,27936.00
2019-02-18T09:22:22.410Z,27904.00
2019-02-18T09:23:22.397Z,28000.00
2019-02-18T09:24:22.393Z,27968.00
2019-02-18T09:25:22.382Z,27840.00
2019-02-18T09:26:22.384Z,27904.00
2019-02-18T09:27:22.357Z,27968.00
2019-02-18T09:28:22.344Z,27936.00
2019-02-18T09:29:22.330Z,27872.00
2019-02-18T09:30:22.320Z,27904.00
2019-02-18T09:31:22.330Z,27904.00
2019-02-18T09:32:22.298Z,28128.00
2019-02-18T09:33:22.285Z,28384.00
2019-02-18T09:34:22.274Z,28288.00
2019-02-18T09:35:22.262Z,28608.00
2019-02-18T09:36:22.276Z,28736.00
2019-02-18T09:37:22.240Z,29184.00
2019-02-18T09:38:25.428Z,35744.00
2019-02-18T09:39:30.767Z,51872.00
2019-02-18T09:40:23.203Z,66656.00
2019-02-18T09:41:22.214Z,68800.00
2019-02-18T09:42:22.194Z,63520.00
2019-02-18T09:43:22.178Z,63232.00
2019-02-18T09:44:22.162Z,64512.00
2019-02-18T09:45:22.151Z,65312.00
2019-02-18T09:46:22.157Z,65184.00
2019-02-18T09:47:22.129Z,66656.00
2019-02-18T09:48:22.120Z,68256.00
2019-02-18T09:49:22.103Z,68736.00
2019-02-18T09:50:22.092Z,68640.00
2019-02-18T09:51:22.104Z,68672.00
2019-02-18T09:52:22.068Z,70688.00
2019-02-18T09:53:22.057Z,72736.00
2019-02-18T09:54:22.052Z,71680.00
2019-02-18T09:55:22.037Z,70080.00
2019-02-18T09:56:22.030Z,71360.00
2019-02-18T09:57:22.036Z,70528.00
2019-02-18T09:58:22.005Z,69312.00
2019-02-18T09:59:21.992Z,68640.00
2019-02-18T10:00:21.988Z,72032.00
2019-02-18T10:01:21.993Z,72256.00
2019-02-18T10:02:21.960Z,71904.00
2019-02-18T10:03:31.545Z,72960.00
2019-02-18T10:04:22.935Z,72352.00
2019-02-18T10:05:21.926Z,71040.00
2019-02-18T10:06:21.914Z,70304.00
2019-02-18T10:07:21.921Z,69984.00
2019-02-18T10:08:21.899Z,72256.00
2019-02-18T10:09:21.882Z,73312.00
2019-02-18T10:10:21.920Z,73760.00
2019-02-18T10:11:21.858Z,72800.00
2019-02-18T10:12:21.872Z,71808.00
2019-02-18T10:13:21.836Z,73120.00
2019-02-18T10:14:21.825Z,72512.00
2019-02-18T10:15:21.819Z,71104.00
2019-02-18T10:16:21.805Z,71136.00
2019-02-18T10:17:21.792Z,71552.00
2019-02-18T10:18:21.800Z,71552.00
2019-02-18T10:19:21.771Z,72352.00
2019-02-18T10:20:21.761Z,71136.00
2019-02-18T10:21:21.754Z,69184.00
2019-02-18T10:22:21.741Z,68608.00
2019-02-18T10:23:21.747Z,70976.00
2019-02-18T10:24:21.720Z,73760.00
2019-02-18T10:25:21.713Z,75296.00
2019-02-18T10:26:21.696Z,74080.00
2019-02-18T10:27:21.684Z,72800.00
2019-02-18T10:28:21.702Z,73504.00
2019-02-18T10:29:21.661Z,74400.00
2019-02-18T10:30:21.653Z,74400.00
2019-02-18T10:31:21.643Z,73312.00
2019-02-18T10:32:21.631Z,71936.00
2019-02-18T10:33:21.625Z,72096.00
2019-02-18T10:34:21.629Z,72384.00
2019-02-18T10:35:21.597Z,73792.00
2019-02-18T10:36:21.587Z,74304.00
2019-02-18T10:37:21.575Z,73536.00
2019-02-18T10:38:21.565Z,72320.00
2019-02-18T10:39:21.572Z,69120.00
2019-02-18T10:40:21.541Z,70208.00
2019-02-18T10:41:21.532Z,72032.00
2019-02-18T10:42:21.520Z,72576.00
2019-02-18T10:43:31.872Z,72096.00
2019-02-18T10:44:22.518Z,71968.00
2019-02-18T10:45:21.485Z,73440.00
2019-02-18T10:46:21.473Z,74752.00
2019-02-18T10:47:21.463Z,73088.00
2019-02-18T10:48:21.453Z,71776.00
2019-02-18T10:49:21.439Z,70688.00
2019-02-18T10:50:21.448Z,70272.00
2019-02-18T10:51:21.426Z,70560.00
2019-02-18T10:52:22.594Z,71552.00
2019-02-18T10:53:21.397Z,72448.00
2019-02-18T10:54:21.390Z,72800.00
2019-02-18T10:55:21.395Z,74144.00
2019-02-18T10:56:21.365Z,73344.00
2019-02-18T10:57:21.359Z,73536.00
2019-02-18T10:58:21.343Z,73728.00
2019-02-18T10:59:21.331Z,73888.00
2019-02-18T11:00:21.342Z,73312.00
2019-02-18T11:01:21.309Z,72128.00
2019-02-18T11:02:21.297Z,74752.00
2019-02-18T11:03:21.291Z,76576.00
2019-02-18T11:04:21.276Z,75680.00
2019-02-18T11:05:21.306Z,73728.00
2019-02-18T11:06:21.258Z,74336.00
2019-02-18T11:07:21.243Z,75808.00
2019-02-18T11:08:21.235Z,78624.00
2019-02-18T11:09:21.221Z,79424.00
2019-02-18T11:10:21.210Z,77600.00
2019-02-18T11:11:21.217Z,74496.00
2019-02-18T11:12:21.188Z,73952.00
2019-02-18T11:13:21.178Z,74144.00
2019-02-18T11:14:21.164Z,74240.00
2019-02-18T11:15:21.154Z,73536.00
2019-02-18T11:16:21.162Z,72928.00
2019-02-18T11:17:21.133Z,71168.00
2019-02-18T11:18:21.124Z,70816.00
2019-02-18T11:19:21.115Z,71008.00
2019-02-18T11:20:21.108Z,71328.00
2019-02-18T11:21:21.109Z,69728.00
2019-02-18T11:22:21.078Z,68768.00
2019-02-18T11:23:21.065Z,70240.00
2019-02-18T11:24:21.054Z,72160.00
2019-02-18T11:25:21.043Z,70656.00
2019-02-18T11:26:21.038Z,69408.00
2019-02-18T11:27:21.041Z,70176.00
2019-02-18T11:28:21.012Z,68960.00
2019-02-18T11:29:20.998Z,68928.00
2019-02-18T11:30:20.987Z,69952.00
2019-02-18T11:31:20.978Z,71680.00
2019-02-18T11:32:20.984Z,70528.00
2019-02-18T11:33:20.954Z,69472.00
2019-02-18T11:34:20.945Z,70368.00
2019-02-18T11:35:21.041Z,70592.00
2019-02-18T11:36:20.921Z,68352.00
2019-02-18T11:37:20.933Z,71072.00
2019-02-18T11:38:20.898Z,70816.00
2019-02-18T11:39:20.889Z,68928.00
2019-02-18T11:40:20.876Z,67680.00
2019-02-18T11:41:27.507Z,67136.00
2019-02-18T11:42:21.875Z,70368.00
2019-02-18T11:43:20.843Z,71680.00
2019-02-18T11:44:20.832Z,72512.00
2019-02-18T11:45:20.822Z,71616.00
2019-02-18T11:46:20.811Z,72928.00
2019-02-18T11:47:20.798Z,72512.00
2019-02-18T11:48:20.808Z,72512.00
2019-02-18T11:49:20.777Z,72960.00
2019-02-18T11:50:20.765Z,73696.00
2019-02-18T11:51:20.754Z,73152.00
2019-02-18T11:52:20.743Z,73216.00
2019-02-18T11:53:20.753Z,73408.00
2019-02-18T11:54:20.728Z,72512.00
2019-02-18T11:55:20.710Z,73216.00
2019-02-18T11:56:20.701Z,72288.00
2019-02-18T11:57:20.688Z,70624.00
2019-02-18T11:58:20.693Z,69824.00
2019-02-18T11:59:24.221Z,70944.00
2019-02-18T12:00:20.655Z,72672.00
2019-02-18T12:01:20.643Z,73152.00
2019-02-18T12:02:20.636Z,70592.00
2019-02-18T12:03:20.639Z,69280.00
2019-02-18T12:04:20.608Z,71008.00
2019-02-18T12:05:20.598Z,72416.00
2019-02-18T12:06:20.586Z,72960.00
2019-02-18T12:07:20.583Z,72064.00
2019-02-18T12:08:20.591Z,72544.00
2019-02-18T12:09:20.552Z,71968.00
2019-02-18T12:10:20.541Z,72928.00
2019-02-18T12:11:20.566Z,72032.00
2019-02-18T12:12:20.518Z,72320.00
2019-02-18T12:13:20.508Z,72320.00
2019-02-18T12:14:20.517Z,73824.00
2019-02-18T12:15:20.488Z,74816.00
2019-02-18T12:16:20.475Z,75680.00
2019-02-18T12:17:21.008Z,76864.00
2019-02-18T12:18:20.454Z,75264.00
2019-02-18T12:19:20.459Z,75616.00
2019-02-18T12:20:20.430Z,74528.00
2019-02-18T12:21:20.417Z,74336.00
2019-02-18T12:22:20.408Z,72352.00
2019-02-18T12:23:20.400Z,70080.00
2019-02-18T12:24:20.428Z,69216.00
2019-02-18T12:25:20.374Z,69248.00
2019-02-18T12:26:20.364Z,69632.00
2019-02-18T12:27:20.352Z,69312.00
2019-02-18T12:28:20.340Z,69216.00
2019-02-18T12:29:26.321Z,70592.00
2019-02-18T12:30:21.336Z,70432.00
2019-02-18T12:31:20.308Z,67360.00
2019-02-18T12:32:20.296Z,62080.00